Time;durP1;ratioP1;P1;durP2;ratioP2;P2;SDS_P1;SDS_P2;PMS_P1;PMS_P2;Temp;Humidity;BMP_temperature;BMP_pressure;BME280_temperature;BME280_humidity;BME280_pressure;Samples;Min_cycle;Max_cycle;Signal;HPM_P1;HPM_P2
2023/07/01 00:01:34;0.00;0.00;0.62;0.00;0.00;0.62;2.70;2.40;;;30.90;25.00;;;;;;2224850;62;20421;-66
2023/07/01 00:04:19;0.00;0.00;0.62;0.00;0.00;0.62;3.10;2.80;;;30.90;25.00;;;;;;2224721;62;20384;-63
2023/07/01 00:07:08;0.00;0.00;0.62;0.00;0.00;0.62;2.50;2.20;;;30.90;25.00;;;;;;2224974;62;20365;-64
2023/07/01 00:09:53;0.00;0.00;0.62;0.00;0.00;0.62;2.70;2.37;;;30.90;25.00;;;;;;2228888;62;20397;-64
2023/07/01 00:12:37;0.00;0.00;0.62;0.00;0.00;0.62;2.40;2.20;;;30.90;24.90;;;;;;2228706;62;20432;-63
2023/07/01 00:15:22;0.00;0.00;0.62;0.00;0.00;0.62;2.70;2.30;;;30.90;24.90;;;;;;2229551;62;20373;-63
2023/07/01 00:18:07;0.00;0.00;0.62;0.00;0.00;0.62;2.20;2.00;;;30.90;24.90;;;;;;2229575;62;20372;-63
2023/07/01 00:20:53;0.00;0.00;0.62;0.00;0.00;0.62;3.07;2.40;;;30.90;24.90;;;;;;2225454;62;20374;-62
2023/07/01 00:23:40;0.00;0.00;0.62;0.00;0.00;0.62;3.37;2.00;;;30.90;24.90;;;;;;2229080;62;20795;-63
2023/07/01 00:26:25;0.00;0.00;0.62;0.00;0.00;0.62;2.80;2.23;;;30.90;24.90;;;;;;2229381;62;20398;-65
2023/07/01 00:29:09;0.00;0.00;0.62;0.00;0.00;0.62;2.37;2.10;;;30.90;24.90;;;;;;2225218;62;20410;-63
2023/07/01 00:31:55;0.00;0.00;0.62;0.00;0.00;0.62;2.50;1.93;;;30.90;24.90;;;;;;2225921;62;21011;-63
2023/07/01 00:34:40;0.00;0.00;0.62;0.00;0.00;0.62;2.30;2.10;;;30.80;24.90;;;;;;2228975;62;20562;-63
2023/07/01 00:37:24;0.00;0.00;0.62;0.00;0.00;0.62;2.00;1.70;;;30.90;24.90;;;;;;2229346;62;20427;-63
2023/07/01 00:40:11;0.00;0.00;0.62;0.00;0.00;0.62;2.57;2.07;;;30.80;24.90;;;;;;2226081;62;20373;-65
2023/07/01 00:42:56;0.00;0.00;0.62;0.00;0.00;0.62;2.60;2.00;;;30.80;24.90;;;;;;2227923;62;20449;-64
2023/07/01 00:45:42;0.00;0.00;0.62;0.00;0.00;0.62;2.40;2.00;;;30.80;24.90;;;;;;2228682;62;20503;-65
2023/07/01 00:48:28;0.00;0.00;0.62;0.00;0.00;0.62;2.37;1.87;;;30.80;24.90;;;;;;2224779;62;20425;-63
2023/07/01 00:51:13;0.00;0.00;0.62;0.00;0.00;0.62;2.27;1.90;;;30.80;24.90;;;;;;2221025;62;20803;-63
2023/07/01 00:53:58;0.00;0.00;0.62;0.00;0.00;0.62;2.47;2.03;;;30.80;24.90;;;;;;2224914;62;20388;-64
2023/07/01 00:56:44;0.00;0.00;0.62;0.00;0.00;0.62;2.30;1.80;;;30.80;24.90;;;;;;2224533;62;20389;-64
2023/07/01 00:59:30;0.00;0.00;0.62;0.00;0.00;0.62;2.10;1.90;;;30.80;24.90;;;;;;2221434;62;20369;-63
2023/07/01 01:02:22;0.00;0.00;0.62;0.00;0.00;0.62;2.60;2.07;;;30.80;24.90;;;;;;2225051;62;20368;-64
2023/07/01 01:05:15;0.00;0.00;0.62;0.00;0.00;0.62;3.07;2.50;;;30.80;24.90;;;;;;2224066;62;20365;-64
2023/07/01 01:08:06;0.00;0.00;0.62;0.00;0.00;0.62;2.20;1.63;;;30.80;24.90;;;;;;2221662;62;20369;-64
2023/07/01 01:10:53;0.00;0.00;0.62;0.00;0.00;0.62;2.30;2.03;;;30.80;24.90;;;;;;2224768;62;20671;-64
2023/07/01 01:13:40;0.00;0.00;0.62;0.00;0.00;0.62;2.20;1.80;;;30.80;24.90;;;;;;2223845;62;20815;-63
2023/07/01 01:16:26;0.00;0.00;0.62;0.00;0.00;0.62;2.60;1.90;;;30.80;24.90;;;;;;2224767;62;20923;-64
2023/07/01 01:19:24;0.00;0.00;0.62;0.00;0.00;0.62;2.30;2.00;;;30.80;24.80;;;;;;2223356;62;20369;-64
2023/07/01 01:22:24;0.00;0.00;0.62;0.00;0.00;0.62;1.97;1.77;;;30.70;24.80;;;;;;2224437;62;20361;-64
2023/07/01 01:25:17;0.00;0.00;0.62;0.00;0.00;0.62;2.10;1.70;;;30.70;24.80;;;;;;2224642;62;20401;-62
2023/07/01 01:28:04;0.00;0.00;0.62;0.00;0.00;0.62;1.83;1.60;;;30.70;24.80;;;;;;2223589;62;20361;-63
2023/07/01 01:30:51;0.00;0.00;0.62;0.00;0.00;0.62;2.10;1.90;;;30.70;25.30;;;;;;2221496;62;20377;-62
2023/07/01 01:33:35;0.00;0.00;0.62;0.00;0.00;0.62;2.13;1.77;;;30.70;24.80;;;;;;2221048;62;20461;-65
2023/07/01 01:36:43;0.00;0.00;0.62;0.00;0.00;0.62;1.97;1.60;;;30.70;24.80;;;;;;2224536;62;20456;-64
2023/07/01 01:39:32;0.00;0.00;0.62;0.00;0.00;0.62;2.03;1.80;;;30.70;24.80;;;;;;2224421;62;20410;-63
2023/07/01 01:42:23;0.00;0.00;0.62;0.00;0.00;0.62;2.60;1.63;;;30.70;24.80;;;;;;2223561;62;20389;-63
2023/07/01 01:45:10;0.00;0.00;0.62;0.00;0.00;0.62;2.10;1.63;;;30.70;24.80;;;;;;2221448;62;20394;-64
2023/07/01 01:47:56;0.00;0.00;0.62;0.00;0.00;0.62;2.33;1.80;;;30.70;24.80;;;;;;2221550;62;20892;-64
2023/07/01 01:50:42;0.00;0.00;0.62;0.00;0.00;0.62;2.13;1.70;;;30.60;24.80;;;;;;2223925;62;20404;-64
2023/07/01 01:53:28;0.00;0.00;0.62;0.00;0.00;0.62;1.83;1.53;;;30.70;24.80;;;;;;2224688;62;20809;-65
2023/07/01 01:56:13;0.00;0.00;0.62;0.00;0.00;0.62;2.07;1.67;;;30.60;24.70;;;;;;2220630;62;20376;-61
2023/07/01 01:58:59;0.00;0.00;0.62;0.00;0.00;0.62;1.60;1.40;;;30.60;24.70;;;;;;2224125;62;20372;-65
2023/07/01 02:01:47;0.00;0.00;0.62;0.00;0.00;0.62;2.20;1.67;;;30.60;24.70;;;;;;2221484;62;20417;-63
2023/07/01 02:04:31;0.00;0.00;0.62;0.00;0.00;0.62;2.07;1.67;;;30.60;24.70;;;;;;2220486;62;20427;-63
2023/07/01 02:07:16;0.00;0.00;0.62;0.00;0.00;0.62;2.17;1.47;;;30.60;24.70;;;;;;2224611;62;20401;-64
2023/07/01 02:10:01;0.00;0.00;0.62;0.00;0.00;0.62;2.03;1.67;;;30.60;24.70;;;;;;2220838;62;20369;-64
2023/07/01 02:12:46;0.00;0.00;0.62;0.00;0.00;0.62;2.43;2.03;;;30.60;24.70;;;;;;2223747;62;20867;-64
2023/07/01 02:15:32;0.00;0.00;0.62;0.00;0.00;0.62;2.47;1.80;;;30.60;24.70;;;;;;2221299;62;20365;-64
2023/07/01 02:18:18;0.00;0.00;0.62;0.00;0.00;0.62;1.83;1.57;;;30.60;24.70;;;;;;2220336;62;20453;-66
2023/07/01 02:21:04;0.00;0.00;0.62;0.00;0.00;0.62;2.00;1.50;;;30.60;24.60;;;;;;2224478;62;20369;-62
2023/07/01 02:23:49;0.00;0.00;0.62;0.00;0.00;0.62;3.23;1.43;;;30.60;24.70;;;;;;2224563;62;20389;-63
2023/07/01 02:26:34;0.00;0.00;0.62;0.00;0.00;0.62;2.00;1.70;;;30.50;24.60;;;;;;2223477;62;20365;-64
2023/07/01 02:29:19;0.00;0.00;0.62;0.00;0.00;0.62;1.70;1.10;;;30.50;24.60;;;;;;2224301;62;20832;-63
2023/07/01 02:32:05;0.00;0.00;0.62;0.00;0.00;0.62;1.67;1.50;;;30.50;24.50;;;;;;2221226;62;20474;-64
2023/07/01 02:34:51;0.00;0.00;0.62;0.00;0.00;0.62;2.07;1.47;;;30.50;24.60;;;;;;2223290;62;20428;-64
2023/07/01 02:37:36;0.00;0.00;0.62;0.00;0.00;0.62;2.70;1.60;;;30.50;24.60;;;;;;2221383;62;20412;-63
2023/07/01 02:40:20;0.00;0.00;0.62;0.00;0.00;0.62;2.43;1.63;;;30.50;24.60;;;;;;2223641;62;20427;-64
2023/07/01 02:43:05;0.00;0.00;0.62;0.00;0.00;0.62;1.90;1.40;;;30.50;24.50;;;;;;2224303;62;20405;-63
2023/07/01 02:45:51;0.00;0.00;0.62;0.00;0.00;0.62;1.90;1.40;;;30.50;24.50;;;;;;2224504;62;20381;-63
2023/07/01 02:48:36;0.00;0.00;0.62;0.00;0.00;0.62;2.17;1.40;;;30.50;24.50;;;;;;2223213;62;20373;-62
2023/07/01 02:51:21;0.00;0.00;0.62;0.00;0.00;0.62;2.13;1.50;;;30.50;24.50;;;;;;2224400;62;20815;-62
2023/07/01 02:54:07;0.00;0.00;0.62;0.00;0.00;0.62;2.00;1.40;;;30.50;24.50;;;;;;2221177;62;20393;-62
2023/07/01 02:56:51;0.00;0.00;0.62;0.00;0.00;0.62;2.13;1.50;;;30.50;24.50;;;;;;2223778;62;20373;-62
2023/07/01 02:59:37;0.00;0.00;0.62;0.00;0.00;0.62;2.13;1.50;;;30.50;24.50;;;;;;2220913;62;20413;-60
2023/07/01 03:02:21;0.00;0.00;0.62;0.00;0.00;0.62;1.70;1.30;;;30.50;24.50;;;;;;2220939;62;20410;-68
2023/07/01 03:05:09;0.00;0.00;0.62;0.00;0.00;0.62;2.03;1.33;;;30.50;24.50;;;;;;2224447;62;20956;-62
2023/07/01 03:07:55;0.00;0.00;0.62;0.00;0.00;0.62;1.60;1.20;;;30.50;24.50;;;;;;2221354;62;20377;-63
2023/07/01 03:10:40;0.00;0.00;0.62;0.00;0.00;0.62;2.57;1.67;;;30.50;24.50;;;;;;2223489;62;20859;-62
2023/07/01 03:16:34;0.00;0.00;0.62;0.00;0.00;0.62;2.10;1.40;;;30.40;24.40;;;;;;2233699;62;20435;-61
2023/07/01 03:19:19;0.00;0.00;0.62;0.00;0.00;0.62;2.00;1.63;;;30.40;24.40;;;;;;2231397;62;21025;-62
2023/07/01 03:22:04;0.00;0.00;0.62;0.00;0.00;0.62;2.10;1.43;;;30.40;24.40;;;;;;2232308;62;20777;-63
2023/07/01 03:27:54;0.00;0.00;0.62;0.00;0.00;0.62;2.63;1.60;;;30.40;24.40;;;;;;2234687;62;20387;-61
2023/07/01 03:30:39;0.00;0.00;0.62;0.00;0.00;0.62;2.03;1.77;;;30.40;24.40;;;;;;2229676;62;20934;-62
2023/07/01 03:33:24;0.00;0.00;0.62;0.00;0.00;0.62;1.43;1.20;;;30.40;24.40;;;;;;2227636;62;20379;-64
2023/07/01 03:36:09;0.00;0.00;0.62;0.00;0.00;0.62;2.00;1.60;;;30.40;24.40;;;;;;2228844;62;20372;-64
2023/07/01 03:38:58;0.00;0.00;0.62;0.00;0.00;0.62;2.07;1.80;;;30.40;24.40;;;;;;2228435;62;20376;-64
2023/07/01 03:41:43;0.00;0.00;0.62;0.00;0.00;0.62;2.17;1.57;;;30.40;24.40;;;;;;2228169;62;20367;-64
2023/07/01 03:44:29;0.00;0.00;0.62;0.00;0.00;0.62;2.20;1.77;;;30.40;24.40;;;;;;2228775;62;20416;-63
2023/07/01 03:47:13;0.00;0.00;0.62;0.00;0.00;0.62;2.23;1.70;;;30.40;24.30;;;;;;2228050;62;20428;-64
2023/07/01 03:49:58;0.00;0.00;0.62;0.00;0.00;0.62;2.00;1.70;;;30.40;24.40;;;;;;2228461;62;20403;-64
2023/07/01 03:52:43;0.00;0.00;0.62;0.00;0.00;0.62;2.27;1.50;;;30.40;24.40;;;;;;2228797;62;20402;-64
2023/07/01 03:55:28;0.00;0.00;0.62;0.00;0.00;0.62;2.00;1.60;;;30.40;24.30;;;;;;2228047;62;20424;-64
2023/07/01 03:58:21;0.00;0.00;0.62;0.00;0.00;0.62;1.80;1.47;;;30.30;24.30;;;;;;2228564;62;20405;-64
2023/07/01 04:01:07;0.00;0.00;0.62;0.00;0.00;0.62;2.00;1.57;;;30.30;24.30;;;;;;2228695;62;20962;-64
2023/07/01 04:03:53;0.00;0.00;0.62;0.00;0.00;0.62;2.00;1.70;;;30.30;24.20;;;;;;2228360;62;21097;-62
2023/07/01 04:06:38;0.00;0.00;0.62;0.00;0.00;0.62;3.03;1.40;;;30.30;24.20;;;;;;2228824;62;20373;-63
2023/07/01 04:09:23;0.00;0.00;0.62;0.00;0.00;0.62;2.17;1.63;;;30.30;24.80;;;;;;2227543;62;20912;-64
2023/07/01 04:12:09;0.00;0.00;0.62;0.00;0.00;0.62;2.00;1.60;;;30.30;24.20;;;;;;2228738;62;20919;-64
2023/07/01 04:14:53;0.00;0.00;0.62;0.00;0.00;0.62;2.57;1.53;;;30.30;24.20;;;;;;2228732;62;20426;-64
2023/07/01 04:17:45;0.00;0.00;0.62;0.00;0.00;0.62;1.67;1.57;;;30.30;24.20;;;;;;2228104;62;20383;-62
2023/07/01 04:20:31;0.00;0.00;0.62;0.00;0.00;0.62;1.80;1.30;;;30.30;24.20;;;;;;2228396;62;20907;-63
2023/07/01 04:23:16;0.00;0.00;0.62;0.00;0.00;0.62;2.53;1.73;;;30.30;24.20;;;;;;2228859;62;20943;-64
2023/07/01 04:26:00;0.00;0.00;0.62;0.00;0.00;0.62;2.53;1.57;;;30.30;24.20;;;;;;2227966;62;20383;-64
2023/07/01 04:28:45;0.00;0.00;0.62;0.00;0.00;0.62;1.63;1.20;;;30.30;24.20;;;;;;2228538;62;20396;-63
2023/07/01 04:31:30;0.00;0.00;0.62;0.00;0.00;0.62;2.13;1.50;;;30.30;24.20;;;;;;2227788;62;20448;-64
2023/07/01 04:34:16;0.00;0.00;0.62;0.00;0.00;0.62;2.73;1.23;;;30.30;24.20;;;;;;2228579;62;20455;-64
2023/07/01 04:37:01;0.00;0.00;0.62;0.00;0.00;0.62;2.43;1.47;;;30.30;24.80;;;;;;2225499;62;20420;-66
2023/07/01 04:39:45;0.00;0.00;0.62;0.00;0.00;0.62;1.70;1.47;;;30.30;24.20;;;;;;2227128;62;20456;-64
2023/07/01 04:42:31;0.00;0.00;0.62;0.00;0.00;0.62;1.80;1.40;;;30.20;24.20;;;;;;2228658;62;20376;-64
2023/07/01 04:45:18;0.00;0.00;0.62;0.00;0.00;0.62;2.20;1.80;;;30.20;24.20;;;;;;2228854;62;20468;-64
2023/07/01 04:48:04;0.00;0.00;0.62;0.00;0.00;0.62;2.13;1.60;;;30.20;24.10;;;;;;2227655;62;20379;-63
2023/07/01 04:50:50;0.00;0.00;0.62;0.00;0.00;0.62;2.27;1.50;;;30.20;24.10;;;;;;2228689;62;20364;-64
2023/07/01 04:56:23;0.00;0.00;0.62;0.00;0.00;0.62;1.70;1.40;;;30.20;24.10;;;;;;2234325;62;20435;-64
2023/07/01 04:59:08;0.00;0.00;0.62;0.00;0.00;0.62;2.37;1.50;;;30.20;24.20;;;;;;2232275;62;20372;-63
2023/07/01 05:01:52;0.00;0.00;0.62;0.00;0.00;0.62;2.53;1.73;;;30.20;24.10;;;;;;2231655;62;20363;-65
2023/07/01 05:04:37;0.00;0.00;0.62;0.00;0.00;0.62;2.33;1.83;;;30.20;24.10;;;;;;2232550;62;20430;-65
2023/07/01 05:07:24;0.00;0.00;0.62;0.00;0.00;0.62;1.80;1.60;;;30.20;24.10;;;;;;2232518;62;20423;-64
2023/07/01 05:10:09;0.00;0.00;0.62;0.00;0.00;0.62;2.37;1.80;;;30.20;24.20;;;;;;2231254;62;20840;-64
2023/07/01 05:12:54;0.00;0.00;0.62;0.00;0.00;0.62;1.93;1.70;;;30.20;24.20;;;;;;2232583;62;20462;-62
2023/07/01 05:15:38;0.00;0.00;0.62;0.00;0.00;0.62;2.30;1.80;;;30.20;24.10;;;;;;2232009;62;20419;-64
2023/07/01 05:18:23;0.00;0.00;0.62;0.00;0.00;0.62;3.10;2.40;;;30.20;24.10;;;;;;2232216;62;20835;-63
2023/07/01 05:21:08;0.00;0.00;0.62;0.00;0.00;0.62;2.70;1.93;;;30.20;24.10;;;;;;2232603;62;20772;-64
2023/07/01 05:23:53;0.00;0.00;0.62;0.00;0.00;0.62;2.23;1.90;;;30.20;24.20;;;;;;2250620;56;20410;-64
2023/07/01 05:26:38;0.00;0.00;0.62;0.00;0.00;0.62;3.00;1.80;;;30.20;24.10;;;;;;2236411;62;20434;-64
2023/07/01 05:29:24;0.00;0.00;0.62;0.00;0.00;0.62;2.43;2.00;;;30.20;24.10;;;;;;2235960;62;20447;-65
2023/07/01 05:32:09;0.00;0.00;0.62;0.00;0.00;0.62;2.43;2.07;;;30.20;24.10;;;;;;2232373;62;20433;-64
2023/07/01 05:34:54;0.00;0.00;0.62;0.00;0.00;0.62;2.90;2.17;;;30.20;24.10;;;;;;2236227;62;20426;-64
2023/07/01 05:37:38;0.00;0.00;0.62;0.00;0.00;0.62;2.53;2.33;;;30.20;24.10;;;;;;2236289;62;20466;-64
2023/07/01 05:40:24;0.00;0.00;0.62;0.00;0.00;0.62;3.57;2.73;;;30.10;24.10;;;;;;2235774;62;20455;-64
2023/07/01 05:43:09;0.00;0.00;0.62;0.00;0.00;0.62;2.77;2.40;;;30.10;24.10;;;;;;2236060;62;20386;-64
2023/07/01 05:45:54;0.00;0.00;0.62;0.00;0.00;0.62;3.60;2.53;;;30.10;24.10;;;;;;2232428;62;20406;-64
2023/07/01 05:48:38;0.00;0.00;0.62;0.00;0.00;0.62;4.57;2.80;;;30.10;24.10;;;;;;2235881;62;20478;-64
2023/07/01 05:51:23;0.00;0.00;0.62;0.00;0.00;0.62;3.03;2.40;;;30.10;24.10;;;;;;2236230;62;20393;-63
2023/07/01 05:54:08;0.00;0.00;0.62;0.00;0.00;0.62;3.43;2.90;;;30.10;24.10;;;;;;2235565;62;20455;-63
2023/07/01 05:56:54;0.00;0.00;0.62;0.00;0.00;0.62;3.03;2.50;;;30.10;24.00;;;;;;2236389;62;20421;-64
2023/07/01 05:59:38;0.00;0.00;0.62;0.00;0.00;0.62;3.00;2.70;;;30.10;24.10;;;;;;2235975;62;20370;-63
2023/07/01 06:02:23;0.00;0.00;0.62;0.00;0.00;0.62;3.67;2.70;;;30.10;24.00;;;;;;2235780;62;20382;-65
2023/07/01 06:05:09;0.00;0.00;0.62;0.00;0.00;0.62;3.53;3.20;;;30.10;24.10;;;;;;2236145;62;20949;-64
2023/07/01 06:07:53;0.00;0.00;0.62;0.00;0.00;0.62;4.57;3.03;;;30.10;24.10;;;;;;2235447;62;20371;-65
2023/07/01 06:10:38;0.00;0.00;0.62;0.00;0.00;0.62;3.07;2.77;;;30.10;24.10;;;;;;2235833;62;20362;-64
2023/07/01 06:13:24;0.00;0.00;0.62;0.00;0.00;0.62;3.70;3.30;;;30.10;24.10;;;;;;2236070;62;20433;-64
2023/07/01 06:16:09;0.00;0.00;0.62;0.00;0.00;0.62;4.10;3.53;;;30.10;24.10;;;;;;2235366;62;20418;-64
2023/07/01 06:18:53;0.00;0.00;0.62;0.00;0.00;0.62;3.93;3.53;;;30.10;24.10;;;;;;2236041;62;20430;-63
2023/07/01 06:21:38;0.00;0.00;0.62;0.00;0.00;0.62;3.70;3.27;;;30.10;24.00;;;;;;2236145;62;20371;-62
2023/07/01 06:24:23;0.00;0.00;0.62;0.00;0.00;0.62;4.60;3.80;;;30.10;24.10;;;;;;2235343;62;20405;-64
2023/07/01 06:27:08;0.00;0.00;0.62;0.00;0.00;0.62;4.33;3.63;;;30.10;24.10;;;;;;2236238;62;20603;-63
2023/07/01 06:29:54;0.00;0.00;0.62;0.00;0.00;0.62;4.73;3.70;;;30.10;24.10;;;;;;2235182;62;20406;-64
2023/07/01 06:32:39;0.00;0.00;0.62;0.00;0.00;0.62;4.60;3.80;;;30.10;24.10;;;;;;2235998;62;20422;-63
2023/07/01 06:35:23;0.00;0.00;0.62;0.00;0.00;0.62;5.00;4.30;;;30.10;24.10;;;;;;2236518;62;20462;-64
2023/07/01 06:38:08;0.00;0.00;0.62;0.00;0.00;0.62;4.17;3.77;;;30.10;24.10;;;;;;2235126;62;20592;-63
2023/07/01 06:40:53;0.00;0.00;0.62;0.00;0.00;0.62;4.83;4.03;;;30.10;24.10;;;;;;2236251;62;20426;-63
2023/07/01 06:43:41;0.00;0.00;0.62;0.00;0.00;0.62;5.07;4.57;;;30.10;24.10;;;;;;2236085;62;20642;-63
2023/07/01 06:46:27;0.00;0.00;0.62;0.00;0.00;0.62;5.00;4.20;;;30.10;24.60;;;;;;2235370;62;20402;-64
2023/07/01 06:49:12;0.00;0.00;0.62;0.00;0.00;0.62;4.70;4.20;;;30.10;24.10;;;;;;2235781;62;20425;-63
2023/07/01 06:51:57;0.00;0.00;0.62;0.00;0.00;0.62;4.43;3.93;;;30.10;24.10;;;;;;2235732;62;20427;-66
2023/07/01 06:54:43;0.00;0.00;0.62;0.00;0.00;0.62;5.43;4.93;;;30.10;24.10;;;;;;2228724;62;20934;-64
2023/07/01 06:57:28;0.00;0.00;0.62;0.00;0.00;0.62;4.90;4.07;;;30.10;24.10;;;;;;2236079;62;20419;-64
2023/07/01 07:00:14;0.00;0.00;0.62;0.00;0.00;0.62;4.63;4.13;;;30.10;24.60;;;;;;2234720;62;20370;-64
2023/07/01 07:03:14;0.00;0.00;0.62;0.00;0.00;0.62;5.03;4.53;;;30.10;24.10;;;;;;2243194;56;20409;-64
2023/07/01 07:05:59;0.00;0.00;0.62;0.00;0.00;0.62;4.70;4.30;;;30.10;24.10;;;;;;2238400;62;20389;-63
2023/07/01 07:08:43;0.00;0.00;0.62;0.00;0.00;0.62;5.50;5.00;;;30.10;24.10;;;;;;2235736;62;20817;-63
2023/07/01 07:11:28;0.00;0.00;0.62;0.00;0.00;0.62;5.20;4.70;;;30.10;24.10;;;;;;2236796;62;20722;-63
2023/07/01 07:14:12;0.00;0.00;0.62;0.00;0.00;0.62;4.60;4.10;;;30.10;24.10;;;;;;2236258;62;20984;-64
2023/07/01 07:16:57;0.00;0.00;0.62;0.00;0.00;0.62;6.00;4.40;;;30.10;24.10;;;;;;2236956;62;20824;-64
2023/07/01 07:19:43;0.00;0.00;0.62;0.00;0.00;0.62;6.43;4.90;;;30.10;24.10;;;;;;2236305;62;20372;-64
2023/07/01 07:22:28;0.00;0.00;0.62;0.00;0.00;0.62;4.87;4.30;;;30.00;24.00;;;;;;2235755;62;20414;-63
2023/07/01 07:25:16;0.00;0.00;0.62;0.00;0.00;0.62;5.00;4.53;;;30.00;24.00;;;;;;2236785;62;20370;-63
2023/07/01 07:28:03;0.00;0.00;0.62;0.00;0.00;0.62;5.20;4.70;;;30.10;24.10;;;;;;2236681;62;20531;-65
2023/07/01 07:30:48;0.00;0.00;0.62;0.00;0.00;0.62;4.50;4.00;;;30.00;24.00;;;;;;2236112;62;20434;-63
2023/07/01 07:33:33;0.00;0.00;0.62;0.00;0.00;0.62;4.30;3.70;;;30.00;24.10;;;;;;2236544;62;20940;-63
2023/07/01 07:36:19;0.00;0.00;0.62;0.00;0.00;0.62;5.17;4.67;;;30.00;24.10;;;;;;2236476;62;20378;-64
2023/07/01 07:39:04;0.00;0.00;0.62;0.00;0.00;0.62;4.80;4.30;;;30.00;24.10;;;;;;2236233;62;20436;-65
2023/07/01 07:41:49;0.00;0.00;0.62;0.00;0.00;0.62;4.80;3.87;;;30.00;24.00;;;;;;2236828;62;20362;-63
2023/07/01 07:44:36;0.00;0.00;0.62;0.00;0.00;0.62;4.40;3.97;;;30.00;24.10;;;;;;2235770;62;20385;-64
2023/07/01 07:47:21;0.00;0.00;0.62;0.00;0.00;0.62;4.43;3.80;;;30.00;24.10;;;;;;2236589;62;20366;-64
2023/07/01 07:50:06;0.00;0.00;0.62;0.00;0.00;0.62;4.47;4.07;;;30.00;24.10;;;;;;2236258;62;20378;-64
2023/07/01 07:52:52;0.00;0.00;0.62;0.00;0.00;0.62;4.10;3.63;;;30.00;24.10;;;;;;2235907;62;20474;-63
2023/07/01 07:55:37;0.00;0.00;0.62;0.00;0.00;0.62;5.07;4.03;;;30.00;24.10;;;;;;2236820;62;20374;-62
2023/07/01 07:58:21;0.00;0.00;0.62;0.00;0.00;0.62;5.50;4.70;;;30.00;24.10;;;;;;2236064;62;20370;-64
2023/07/01 08:01:06;0.00;0.00;0.62;0.00;0.00;0.62;5.30;4.80;;;30.00;24.10;;;;;;2236197;62;20374;-63
2023/07/01 08:03:51;0.00;0.00;0.62;0.00;0.00;0.62;5.07;4.57;;;30.00;24.10;;;;;;2236556;62;20450;-64
2023/07/01 08:06:35;0.00;0.00;0.62;0.00;0.00;0.62;5.50;4.97;;;30.00;24.10;;;;;;2235598;62;20793;-64
2023/07/01 08:09:22;0.00;0.00;0.62;0.00;0.00;0.62;4.70;4.17;;;30.00;24.10;;;;;;2236316;62;20401;-64
2023/07/01 08:12:08;0.00;0.00;0.62;0.00;0.00;0.62;4.60;4.20;;;30.00;24.10;;;;;;2236749;62;20390;-65
2023/07/01 08:14:53;0.00;0.00;0.62;0.00;0.00;0.62;4.87;4.37;;;30.00;24.10;;;;;;2235614;62;20486;-64
2023/07/01 08:17:39;0.00;0.00;0.62;0.00;0.00;0.62;4.43;4.03;;;30.00;24.10;;;;;;2236638;62;20362;-63
2023/07/01 08:20:24;0.00;0.00;0.62;0.00;0.00;0.62;4.93;4.43;;;30.00;24.10;;;;;;2236242;62;20421;-64
2023/07/01 08:23:08;0.00;0.00;0.62;0.00;0.00;0.62;4.37;3.90;;;30.00;24.10;;;;;;2236072;62;20390;-63
2023/07/01 08:25:54;0.00;0.00;0.62;0.00;0.00;0.62;3.80;3.40;;;30.00;24.10;;;;;;2236772;62;20761;-63
2023/07/01 08:28:39;0.00;0.00;0.62;0.00;0.00;0.62;4.47;3.90;;;30.00;24.10;;;;;;2235162;62;20498;-64
2023/07/01 08:31:24;0.00;0.00;0.62;0.00;0.00;0.62;4.23;3.83;;;30.00;24.10;;;;;;2236636;62;20374;-64
2023/07/01 08:34:09;0.00;0.00;0.62;0.00;0.00;0.62;4.07;3.67;;;30.00;24.20;;;;;;2236669;62;20390;-63
2023/07/01 08:36:54;0.00;0.00;0.62;0.00;0.00;0.62;4.67;4.17;;;30.00;24.20;;;;;;2235423;62;20366;-65
2023/07/01 08:39:39;0.00;0.00;0.62;0.00;0.00;0.62;4.13;3.47;;;30.00;24.20;;;;;;2236174;62;20920;-64
2023/07/01 08:42:42;0.00;0.00;0.62;0.00;0.00;0.62;3.97;3.57;;;30.00;24.20;;;;;;2236386;62;20455;-63
2023/07/01 08:45:30;0.00;0.00;0.62;0.00;0.00;0.62;4.13;3.73;;;30.00;24.20;;;;;;2236418;62;20410;-63
2023/07/01 08:48:18;0.00;0.00;0.62;0.00;0.00;0.62;3.80;3.27;;;30.00;24.20;;;;;;2236200;62;20848;-64
2023/07/01 08:51:12;0.00;0.00;0.62;0.00;0.00;0.62;4.27;3.87;;;30.00;24.20;;;;;;2235473;62;20507;-63
2023/07/01 08:53:59;0.00;0.00;0.62;0.00;0.00;0.62;3.57;3.27;;;30.00;24.70;;;;;;2236426;62;20390;-64
2023/07/01 08:56:48;0.00;0.00;0.62;0.00;0.00;0.62;3.90;3.40;;;30.00;24.20;;;;;;2233380;62;20467;-63
2023/07/01 08:59:34;0.00;0.00;0.62;0.00;0.00;0.62;3.40;3.00;;;30.00;24.20;;;;;;2235234;62;20370;-64
2023/07/01 09:02:22;0.00;0.00;0.62;0.00;0.00;0.62;3.30;3.00;;;30.00;24.20;;;;;;2236772;62;20758;-63
2023/07/01 09:05:08;0.00;0.00;0.62;0.00;0.00;0.62;3.17;2.87;;;30.00;24.30;;;;;;2236001;62;20462;-63
2023/07/01 09:07:53;0.00;0.00;0.62;0.00;0.00;0.62;4.03;3.60;;;30.00;24.30;;;;;;2236444;62;20513;-64
2023/07/01 09:10:38;0.00;0.00;0.62;0.00;0.00;0.62;3.33;3.03;;;30.00;24.20;;;;;;2236094;62;20892;-64
2023/07/01 09:13:22;0.00;0.00;0.62;0.00;0.00;0.62;3.37;3.07;;;30.00;24.30;;;;;;2235404;62;20405;-64
2023/07/01 09:16:09;0.00;0.00;0.62;0.00;0.00;0.62;3.27;2.97;;;30.00;24.30;;;;;;2236521;62;20406;-63
2023/07/01 09:19:04;0.00;0.00;0.62;0.00;0.00;0.62;3.20;2.90;;;30.00;24.30;;;;;;2235919;62;20928;-62
2023/07/01 09:21:49;0.00;0.00;0.62;0.00;0.00;0.62;2.87;2.43;;;30.00;24.30;;;;;;2235645;62;20363;-62
2023/07/01 09:24:39;0.00;0.00;0.62;0.00;0.00;0.62;4.17;3.30;;;30.00;24.30;;;;;;2236059;61;20438;-64
2023/07/01 09:27:24;0.00;0.00;0.62;0.00;0.00;0.62;3.77;3.10;;;30.00;24.30;;;;;;2235885;62;20377;-65
2023/07/01 09:30:24;0.00;0.00;0.62;0.00;0.00;0.62;3.30;3.00;;;30.00;24.30;;;;;;2236023;62;20370;-62
2023/07/01 09:33:12;0.00;0.00;0.62;0.00;0.00;0.62;3.13;2.80;;;30.00;24.30;;;;;;2236179;62;20443;-64
2023/07/01 09:36:01;0.00;0.00;0.62;0.00;0.00;0.62;3.40;2.60;;;30.00;24.30;;;;;;2235415;62;20375;-64
2023/07/01 09:38:51;0.00;0.00;0.62;0.00;0.00;0.62;2.93;2.60;;;30.00;24.80;;;;;;2236023;62;20805;-66
2023/07/01 09:41:36;0.00;0.00;0.62;0.00;0.00;0.62;3.03;2.60;;;30.00;24.30;;;;;;2236302;62;20901;-64
2023/07/01 09:44:21;0.00;0.00;0.62;0.00;0.00;0.62;3.30;2.53;;;30.00;24.30;;;;;;2235689;62;20438;-63
2023/07/01 09:47:06;0.00;0.00;0.62;0.00;0.00;0.62;3.27;2.60;;;30.00;24.30;;;;;;2236058;62;20478;-63
2023/07/01 09:49:53;0.00;0.00;0.62;0.00;0.00;0.62;3.23;2.93;;;30.00;24.30;;;;;;2235052;62;20885;-64
2023/07/01 09:52:38;0.00;0.00;0.62;0.00;0.00;0.62;2.77;2.43;;;30.00;24.30;;;;;;2236099;62;20542;-62
2023/07/01 09:55:24;0.00;0.00;0.62;0.00;0.00;0.62;2.67;1.97;;;30.00;24.30;;;;;;2236395;62;20367;-63
2023/07/01 09:58:09;0.00;0.00;0.62;0.00;0.00;0.62;2.93;2.20;;;30.00;24.90;;;;;;2235381;62;20374;-64
2023/07/01 10:00:55;0.00;0.00;0.62;0.00;0.00;0.62;2.50;2.30;;;30.00;24.30;;;;;;2236179;62;20369;-61
2023/07/01 10:03:40;0.00;0.00;0.62;0.00;0.00;0.62;5.37;2.40;;;30.00;24.30;;;;;;2236064;62;20952;-63
2023/07/01 10:06:26;0.00;0.00;0.62;0.00;0.00;0.62;2.70;2.20;;;30.10;24.40;;;;;;2235438;62;20403;-63
2023/07/01 10:09:11;0.00;0.00;0.62;0.00;0.00;0.62;3.47;2.70;;;30.00;24.90;;;;;;2235789;62;20441;-63
2023/07/01 10:11:59;0.00;0.00;0.62;0.00;0.00;0.62;3.10;1.87;;;30.00;24.40;;;;;;2235208;62;20386;-64
2023/07/01 10:14:48;0.00;0.00;0.62;0.00;0.00;0.62;3.07;2.20;;;30.10;24.40;;;;;;2236082;62;20390;-63
2023/07/01 10:17:45;0.00;0.00;0.62;0.00;0.00;0.62;2.60;2.10;;;30.00;24.40;;;;;;2236272;62;20426;-65
2023/07/01 10:20:32;0.00;0.00;0.62;0.00;0.00;0.62;2.97;2.10;;;30.00;24.40;;;;;;2235093;62;20762;-64
2023/07/01 10:23:19;0.00;0.00;0.62;0.00;0.00;0.62;2.40;2.20;;;30.00;24.40;;;;;;2236276;62;20398;-64
2023/07/01 10:26:42;0.00;0.00;0.62;0.00;0.00;0.62;2.57;2.03;;;30.10;24.40;;;;;;2236229;62;20402;-63
2023/07/01 10:29:55;0.00;0.00;0.62;0.00;0.00;0.62;2.67;2.30;;;30.10;24.40;;;;;;2235755;62;20402;-62
2023/07/01 10:32:40;0.00;0.00;0.62;0.00;0.00;0.62;2.23;1.93;;;30.10;24.40;;;;;;2235966;62;20394;-64
2023/07/01 10:35:25;0.00;0.00;0.62;0.00;0.00;0.62;2.40;2.20;;;30.10;24.40;;;;;;2235199;62;20908;-64
2023/07/01 10:38:22;0.00;0.00;0.62;0.00;0.00;0.62;2.20;1.80;;;30.10;24.40;;;;;;2235937;62;20781;-64
2023/07/01 10:41:07;0.00;0.00;0.62;0.00;0.00;0.62;2.67;2.10;;;30.10;24.40;;;;;;2236088;62;20383;-64
2023/07/01 10:44:21;0.00;0.00;0.62;0.00;0.00;0.62;2.53;2.07;;;30.10;24.40;;;;;;2232413;62;20446;-62
2023/07/01 10:47:16;0.00;0.00;0.62;0.00;0.00;0.62;2.10;1.90;;;30.10;24.40;;;;;;2236271;62;20390;-64
2023/07/01 10:50:09;0.00;0.00;0.62;0.00;0.00;0.62;2.40;1.90;;;30.10;24.40;;;;;;2234647;62;20410;-64
2023/07/01 10:53:02;0.00;0.00;0.62;0.00;0.00;0.62;2.60;2.17;;;30.10;24.50;;;;;;2236158;62;20839;-64
2023/07/01 10:55:49;0.00;0.00;0.62;0.00;0.00;0.62;2.40;1.90;;;30.10;24.40;;;;;;2236269;62;20921;-63
2023/07/01 10:58:34;0.00;0.00;0.62;0.00;0.00;0.62;2.77;1.97;;;30.10;24.40;;;;;;2235332;62;20471;-63
2023/07/01 11:01:44;0.00;0.00;0.62;0.00;0.00;0.62;3.50;2.30;;;30.10;24.50;;;;;;2236143;62;20484;-64
2023/07/01 11:05:03;0.00;0.00;0.62;0.00;0.00;0.62;2.63;2.10;;;30.10;24.50;;;;;;2235017;62;20817;-64
2023/07/01 11:07:48;0.00;0.00;0.62;0.00;0.00;0.62;2.23;1.97;;;30.10;24.40;;;;;;2233240;62;20374;-63